Time;durP1;ratioP1;P1;durP2;ratioP2;P2;SDS_P1;SDS_P2;PMS_P1;PMS_P2;Temp;Humidity;BMP_temperature;BMP_pressure;BME280_temperature;BME280_humidity;BME280_pressure;Samples;Min_cycle;Max_cycle;Signal;HPM_P1;HPM_P2
2022/09/02 00:01:36;;;;;;;;;;;17.60;99.90;;;;;;4214268;28;19928;-60
2022/09/02 00:03:40;;;;;;;;;;;17.60;99.90;;;;;;4215479;28;19924;-60
2022/09/02 00:05:44;;;;;;;;;;;17.60;99.90;;;;;;4217615;28;20319;-59
2022/09/02 00:07:46;;;;;;;;;;;17.50;99.90;;;;;;4232174;28;19977;-60
2022/09/02 00:09:50;;;;;;;;;;;17.60;99.90;;;;;;4219457;27;20490;-60
2022/09/02 00:11:57;;;;;;;;;;;17.80;99.90;;;;;;4213734;28;20380;-60
2022/09/02 00:14:04;;;;;;;;;;;17.80;99.90;;;;;;4215321;28;19928;-60
2022/09/02 00:16:24;;;;;;;;;;;17.60;99.90;;;;;;4213465;28;20003;-60
2022/09/02 00:18:28;;;;;;;;;;;17.50;99.90;;;;;;4214996;28;20031;-60
2022/09/02 00:20:31;;;;;;;;;;;17.50;99.90;;;;;;4215028;28;19935;-61
2022/09/02 00:22:34;;;;;;;;;;;17.50;99.90;;;;;;4214996;28;20383;-60
2022/09/02 00:24:36;;;;;;;;;;;17.50;99.90;;;;;;4215044;28;20732;-61
2022/09/02 00:26:39;;;;;;;;;;;17.50;99.90;;;;;;4215322;28;20011;-56
2022/09/02 00:28:45;;;;;;;;;;;17.50;99.90;;;;;;4215068;28;19924;-56
2022/09/02 00:30:56;;;;;;;;;;;17.40;99.90;;;;;;4214776;28;19956;-56
2022/09/02 00:32:59;;;;;;;;;;;17.40;99.90;;;;;;4215058;28;19990;-57
2022/09/02 00:35:02;;;;;;;;;;;17.30;99.90;;;;;;4204596;28;19928;-56
2022/09/02 00:37:04;;;;;;;;;;;17.30;99.90;;;;;;4198554;28;19974;-56
2022/09/02 00:39:08;;;;;;;;;;;17.30;99.90;;;;;;4214810;28;19924;-55
2022/09/02 00:41:18;;;;;;;;;;;17.20;99.90;;;;;;4215145;28;20371;-56
2022/09/02 00:43:26;;;;;;;;;;;17.10;99.90;;;;;;4214652;28;19934;-56
2022/09/02 00:45:28;;;;;;;;;;;16.90;99.90;;;;;;4197903;28;19939;-56
2022/09/02 00:47:31;;;;;;;;;;;16.80;99.90;;;;;;4206350;28;19927;-55
2022/09/02 00:49:37;;;;;;;;;;;16.70;99.90;;;;;;4214606;28;19977;-57
2022/09/02 00:51:43;;;;;;;;;;;16.80;99.90;;;;;;4214499;28;19963;-56
2022/09/02 00:53:48;;;;;;;;;;;16.80;99.90;;;;;;4219980;28;19928;-56
2022/09/02 00:55:52;;;;;;;;;;;16.90;99.90;;;;;;4214573;28;20307;-55
2022/09/02 00:58:13;;;;;;;;;;;16.90;99.90;;;;;;4214552;28;19924;-56
2022/09/02 01:00:22;;;;;;;;;;;16.80;99.90;;;;;;4214243;28;19924;-56
2022/09/02 01:02:27;;;;;;;;;;;16.80;99.90;;;;;;4220580;28;20014;-56
2022/09/02 01:04:29;;;;;;;;;;;16.80;99.90;;;;;;4214525;28;19928;-57
2022/09/02 01:06:33;;;;;;;;;;;16.80;99.90;;;;;;4214390;28;20280;-56
2022/09/02 01:08:38;;;;;;;;;;;16.80;99.90;;;;;;4214307;28;19928;-55
2022/09/02 01:10:41;;;;;;;;;;;16.90;99.90;;;;;;4214262;28;20267;-55
2022/09/02 01:12:45;;;;;;;;;;;16.90;99.90;;;;;;4214076;28;19929;-55
2022/09/02 01:14:48;;;;;;;;;;;16.90;99.90;;;;;;4214063;28;19994;-55
2022/09/02 01:17:00;;;;;;;;;;;16.90;99.90;;;;;;4214382;28;19938;-56
2022/09/02 01:19:09;;;;;;;;;;;16.80;99.90;;;;;;4214098;28;19925;-55
2022/09/02 01:21:22;;;;;;;;;;;16.80;99.90;;;;;;4214284;28;19953;-56
2022/09/02 01:23:26;;;;;;;;;;;16.80;99.90;;;;;;4214208;28;19931;-55
2022/09/02 01:25:30;;;;;;;;;;;16.90;99.90;;;;;;4214072;28;20331;-55
2022/09/02 01:27:33;;;;;;;;;;;16.90;99.90;;;;;;4213479;28;19934;-56
2022/09/02 01:29:35;;;;;;;;;;;16.80;99.90;;;;;;4213837;28;20434;-56
2022/09/02 01:31:45;;;;;;;;;;;16.70;99.90;;;;;;4213901;28;19925;-56
2022/09/02 01:33:55;;;;;;;;;;;16.70;99.90;;;;;;4214312;28;19928;-56
2022/09/02 01:35:59;;;;;;;;;;;16.60;99.90;;;;;;4213783;28;19928;-55
2022/09/02 01:38:02;;;;;;;;;;;16.50;99.90;;;;;;4214086;28;19931;-55
2022/09/02 01:40:06;;;;;;;;;;;16.40;99.90;;;;;;4214119;28;19924;-56
2022/09/02 01:42:09;;;;;;;;;;;16.30;99.90;;;;;;4214030;28;20379;-56
2022/09/02 01:44:15;;;;;;;;;;;16.30;99.90;;;;;;4212297;28;19931;-55
2022/09/02 01:46:19;;;;;;;;;;;16.30;99.90;;;;;;4197343;28;19940;-55
2022/09/02 01:48:39;;;;;;;;;;;16.30;99.90;;;;;;4209109;28;19993;-55
2022/09/02 01:50:43;;;;;;;;;;;16.30;99.90;;;;;;4213751;28;19946;-56
2022/09/02 01:52:47;;;;;;;;;;;16.30;99.90;;;;;;4214115;28;19936;-56
2022/09/02 01:54:51;;;;;;;;;;;16.40;99.90;;;;;;4213466;28;19928;-55
2022/09/02 01:57:06;;;;;;;;;;;16.30;99.90;;;;;;4219498;28;19939;-55
2022/09/02 01:59:10;;;;;;;;;;;16.20;99.90;;;;;;4222618;28;19927;-55
2022/09/02 02:01:24;;;;;;;;;;;16.10;99.90;;;;;;4218395;28;20027;-56
2022/09/02 02:03:27;;;;;;;;;;;16.10;99.90;;;;;;4213658;28;19928;-55
2022/09/02 02:05:31;;;;;;;;;;;16.10;99.90;;;;;;4213589;28;19925;-56
2022/09/02 02:07:35;;;;;;;;;;;16.10;99.90;;;;;;4213579;28;20315;-57
2022/09/02 02:09:38;;;;;;;;;;;16.10;99.90;;;;;;4213569;28;20299;-56
2022/09/02 02:11:42;;;;;;;;;;;16.10;99.90;;;;;;4213313;28;19928;-56
2022/09/02 02:13:45;;;;;;;;;;;16.10;99.90;;;;;;4213509;28;19935;-55
2022/09/02 02:15:47;;;;;;;;;;;16.10;99.90;;;;;;4213724;28;19931;-55
2022/09/02 02:17:50;;;;;;;;;;;16.00;99.90;;;;;;4213641;28;19928;-56
2022/09/02 02:19:55;;;;;;;;;;;16.00;99.90;;;;;;4213471;28;19924;-55
2022/09/02 02:22:14;;;;;;;;;;;16.00;99.90;;;;;;4213579;28;19928;-57
2022/09/02 02:24:16;;;;;;;;;;;15.90;99.90;;;;;;4213583;28;19928;-56
2022/09/02 02:26:22;;;;;;;;;;;15.90;99.90;;;;;;4213620;28;20425;-55
2022/09/02 02:28:25;;;;;;;;;;;15.90;99.90;;;;;;4213506;28;19973;-56
2022/09/02 02:30:32;;;;;;;;;;;15.80;99.90;;;;;;4213240;28;20268;-55
2022/09/02 02:32:34;;;;;;;;;;;15.80;99.90;;;;;;4213342;28;19946;-56
2022/09/02 02:34:38;;;;;;;;;;;15.80;99.90;;;;;;4213299;28;19928;-55
2022/09/02 02:36:47;;;;;;;;;;;15.80;99.90;;;;;;4213329;28;19924;-57
2022/09/02 02:38:52;;;;;;;;;;;15.70;99.90;;;;;;4215500;28;20456;-56
2022/09/02 02:40:56;;;;;;;;;;;15.70;99.90;;;;;;4216588;28;19964;-56
2022/09/02 02:42:59;;;;;;;;;;;15.60;99.90;;;;;;4216873;28;19935;-56
2022/09/02 02:45:02;;;;;;;;;;;15.60;99.90;;;;;;4216662;28;19974;-56
2022/09/02 02:47:15;;;;;;;;;;;15.50;99.90;;;;;;4221885;28;19959;-55
2022/09/02 02:49:19;;;;;;;;;;;15.50;99.90;;;;;;4216372;28;20348;-56
2022/09/02 02:51:22;;;;;;;;;;;15.50;99.90;;;;;;4215196;28;19975;-55
2022/09/02 02:53:28;;;;;;;;;;;15.50;99.90;;;;;;4216693;28;19924;-55
2022/09/02 02:55:31;;;;;;;;;;;15.60;99.90;;;;;;4226297;28;20351;-55
2022/09/02 02:57:34;;;;;;;;;;;15.60;99.90;;;;;;4231514;27;19928;-55
2022/09/02 02:59:42;;;;;;;;;;;15.40;99.90;;;;;;4215341;28;19923;-55
2022/09/02 03:01:45;;;;;;;;;;;15.40;99.90;;;;;;4216122;28;19956;-56
2022/09/02 03:03:48;;;;;;;;;;;15.40;99.90;;;;;;4216122;28;20019;-55
2022/09/02 03:05:52;;;;;;;;;;;15.40;99.90;;;;;;4216382;28;20011;-56
2022/09/02 03:07:56;;;;;;;;;;;15.40;99.90;;;;;;4216393;28;19986;-56
2022/09/02 03:10:00;;;;;;;;;;;15.40;99.90;;;;;;4214892;28;19928;-56
2022/09/02 03:12:03;;;;;;;;;;;15.40;99.90;;;;;;4215992;28;20383;-55
2022/09/02 03:14:25;;;;;;;;;;;15.40;99.90;;;;;;4215676;28;19981;-56
2022/09/02 03:16:29;;;;;;;;;;;15.40;99.90;;;;;;4216323;28;19924;-56
2022/09/02 03:18:32;;;;;;;;;;;15.40;99.90;;;;;;4199453;28;19925;-55
2022/09/02 03:20:34;;;;;;;;;;;15.30;99.90;;;;;;4207173;28;19970;-55
2022/09/02 03:22:57;;;;;;;;;;;15.20;99.90;;;;;;4215906;28;19960;-55
2022/09/02 03:25:00;;;;;;;;;;;15.20;99.90;;;;;;4215980;28;19928;-56
2022/09/02 03:27:03;;;;;;;;;;;15.20;99.90;;;;;;4215842;28;19924;-55
2022/09/02 03:29:08;;;;;;;;;;;15.20;99.90;;;;;;4216093;28;20307;-55
2022/09/02 03:31:16;;;;;;;;;;;15.20;99.90;;;;;;4215707;28;19931;-56
2022/09/02 03:33:21;;;;;;;;;;;15.20;99.90;;;;;;4215717;28;19927;-56
2022/09/02 03:35:26;;;;;;;;;;;15.10;99.90;;;;;;4216114;28;19974;-55
2022/09/02 03:37:28;;;;;;;;;;;15.00;99.90;;;;;;4215663;28;20288;-56
2022/09/02 03:39:31;;;;;;;;;;;15.00;99.90;;;;;;4215705;28;19928;-56
2022/09/02 03:41:34;;;;;;;;;;;14.90;99.90;;;;;;4215586;28;20295;-56
2022/09/02 03:43:36;;;;;;;;;;;14.90;99.90;;;;;;4215987;28;19928;-57
2022/09/02 03:45:40;;;;;;;;;;;14.80;99.90;;;;;;4215932;28;19932;-56
2022/09/02 03:47:49;;;;;;;;;;;14.80;99.90;;;;;;4215487;27;20387;-55
2022/09/02 03:49:57;;;;;;;;;;;14.80;99.90;;;;;;4214806;28;20025;-56
2022/09/02 03:52:00;;;;;;;;;;;14.80;99.90;;;;;;4227248;28;19924;-55
2022/09/02 03:54:03;;;;;;;;;;;14.70;99.90;;;;;;4232573;27;19924;-56
2022/09/02 03:56:20;;;;;;;;;;;14.70;99.90;;;;;;4230996;28;20375;-55
2022/09/02 03:58:24;;;;;;;;;;;14.70;99.90;;;;;;4231171;28;19927;-55
2022/09/02 04:00:28;;;;;;;;;;;14.70;99.90;;;;;;4232465;27;19976;-55
2022/09/02 04:02:30;;;;;;;;;;;14.70;99.90;;;;;;4232107;27;20433;-56
2022/09/02 04:04:33;;;;;;;;;;;14.70;99.90;;;;;;4232414;28;19928;-55
2022/09/02 04:06:38;;;;;;;;;;;14.70;99.90;;;;;;4232262;27;19938;-55
2022/09/02 04:08:41;;;;;;;;;;;14.70;99.90;;;;;;4232524;27;20082;-55
2022/09/02 04:10:44;;;;;;;;;;;14.60;99.90;;;;;;4232553;27;20329;-57
2022/09/02 04:12:47;;;;;;;;;;;14.60;99.90;;;;;;4232024;28;19985;-55
2022/09/02 04:14:50;;;;;;;;;;;14.60;99.90;;;;;;4232271;28;20346;-56
2022/09/02 04:16:59;;;;;;;;;;;14.60;99.90;;;;;;4230621;28;19928;-55
2022/09/02 04:19:01;;;;;;;;;;;14.60;99.90;;;;;;4232402;27;19938;-55
2022/09/02 04:21:07;;;;;;;;;;;14.60;99.90;;;;;;4230782;28;20306;-55
2022/09/02 04:23:10;;;;;;;;;;;14.60;99.90;;;;;;4231803;28;20366;-55
2022/09/02 04:25:13;;;;;;;;;;;14.50;99.90;;;;;;4231893;28;20298;-56
2022/09/02 04:27:19;;;;;;;;;;;14.50;99.90;;;;;;4231881;28;20389;-56
2022/09/02 04:29:23;;;;;;;;;;;14.60;99.90;;;;;;4232206;27;20387;-55
2022/09/02 04:31:31;;;;;;;;;;;14.60;99.90;;;;;;4230534;28;19935;-55
2022/09/02 04:33:34;;;;;;;;;;;14.60;99.90;;;;;;4231750;28;19927;-56
2022/09/02 04:35:40;;;;;;;;;;;14.70;99.90;;;;;;4231922;28;19924;-55
2022/09/02 04:37:43;;;;;;;;;;;14.60;99.90;;;;;;4231617;27;20410;-56
2022/09/02 04:39:51;;;;;;;;;;;14.60;99.90;;;;;;4218635;27;20387;-55
2022/09/02 04:41:55;;;;;;;;;;;14.50;99.90;;;;;;4214858;28;19928;-55
2022/09/02 04:43:58;;;;;;;;;;;14.40;99.90;;;;;;4214779;28;20015;-55
2022/09/02 04:46:04;;;;;;;;;;;14.30;99.90;;;;;;4214816;28;20375;-55
2022/09/02 04:48:07;;;;;;;;;;;14.20;99.90;;;;;;4223637;28;19927;-55
2022/09/02 04:50:11;;;;;;;;;;;14.20;99.90;;;;;;4214702;28;19977;-55
2022/09/02 04:52:13;;;;;;;;;;;14.10;99.90;;;;;;4214616;28;19924;-56
2022/09/02 04:54:17;;;;;;;;;;;14.20;99.90;;;;;;4214361;28;20053;-56
2022/09/02 04:56:22;;;;;;;;;;;14.20;99.90;;;;;;4214718;28;19931;-55
2022/09/02 04:58:24;;;;;;;;;;;14.20;99.90;;;;;;4214640;28;20383;-55
2022/09/02 05:00:28;;;;;;;;;;;14.20;99.90;;;;;;4213325;28;19934;-55
2022/09/02 05:02:31;;;;;;;;;;;14.30;99.90;;;;;;4214180;28;19928;-55
2022/09/02 05:04:37;;;;;;;;;;;14.30;99.90;;;;;;4214609;28;19927;-55
2022/09/02 05:06:41;;;;;;;;;;;14.30;99.90;;;;;;4214746;28;19977;-55
2022/09/02 05:08:47;;;;;;;;;;;14.20;99.90;;;;;;4214256;28;20019;-55
2022/09/02 05:10:55;;;;;;;;;;;14.40;99.90;;;;;;4214203;28;19924;-56
2022/09/02 05:12:58;;;;;;;;;;;14.30;99.90;;;;;;4214299;28;19977;-56
2022/09/02 05:15:01;;;;;;;;;;;14.10;99.90;;;;;;4214012;28;19932;-55
2022/09/02 05:17:03;;;;;;;;;;;14.20;99.90;;;;;;4214325;28;19924;-55
2022/09/02 05:19:12;;;;;;;;;;;14.20;99.90;;;;;;4214287;28;19958;-56
2022/09/02 05:21:22;;;;;;;;;;;14.20;99.90;;;;;;4212769;28;20418;-56
2022/09/02 05:23:24;;;;;;;;;;;14.30;99.90;;;;;;4214176;28;19924;-55
2022/09/02 05:25:42;;;;;;;;;;;14.40;99.90;;;;;;4214612;28;19935;-56
2022/09/02 05:27:45;;;;;;;;;;;14.40;99.90;;;;;;4214010;28;19928;-56
2022/09/02 05:29:48;;;;;;;;;;;14.40;99.90;;;;;;4214148;28;19969;-56
2022/09/02 05:31:52;;;;;;;;;;;14.40;99.90;;;;;;4214159;28;20294;-56
2022/09/02 05:33:54;;;;;;;;;;;14.40;99.90;;;;;;4213671;28;20394;-55
2022/09/02 05:35:57;;;;;;;;;;;14.40;99.90;;;;;;4213964;28;20394;-55
2022/09/02 05:38:07;;;;;;;;;;;14.40;99.90;;;;;;4213988;28;19928;-55
2022/09/02 05:40:12;;;;;;;;;;;14.60;99.90;;;;;;4213861;28;20435;-55
2022/09/02 05:42:18;;;;;;;;;;;14.50;99.90;;;;;;4213683;28;19930;-55
2022/09/02 05:44:30;;;;;;;;;;;14.50;99.90;;;;;;4226868;28;19928;-55
2022/09/02 05:46:43;;;;;;;;;;;14.50;99.90;;;;;;4217847;28;19935;-54
2022/09/02 05:49:07;;;;;;;;;;;14.50;99.90;;;;;;4212497;28;19934;-55
2022/09/02 05:51:12;;;;;;;;;;;14.70;99.90;;;;;;4213890;28;19927;-55
2022/09/02 05:53:15;;;;;;;;;;;14.70;99.90;;;;;;4213797;28;19934;-55
2022/09/02 05:55:19;;;;;;;;;;;14.60;99.90;;;;;;4213404;28;19935;-55
2022/09/02 05:57:21;;;;;;;;;;;14.60;99.90;;;;;;4213665;28;19954;-55
2022/09/02 05:59:25;;;;;;;;;;;14.70;99.90;;;;;;4213920;28;20409;-55
2022/09/02 06:01:28;;;;;;;;;;;14.70;99.90;;;;;;4212268;28;20319;-59
2022/09/02 06:03:51;;;;;;;;;;;14.70;99.90;;;;;;4213427;28;20443;-59
2022/09/02 06:05:55;;;;;;;;;;;14.70;99.90;;;;;;4201351;28;19932;-60
2022/09/02 06:07:58;;;;;;;;;;;14.80;99.90;;;;;;4212286;28;19958;-59
2022/09/02 06:10:02;;;;;;;;;;;14.80;99.90;;;;;;4212318;28;19932;-58
2022/09/02 06:12:05;;;;;;;;;;;14.80;99.90;;;;;;4213632;28;19977;-60
2022/09/02 06:14:07;;;;;;;;;;;14.70;99.90;;;;;;4216151;28;20456;-60
2022/09/02 06:16:28;;;;;;;;;;;14.80;99.90;;;;;;4217308;28;19954;-60
2022/09/02 06:18:33;;;;;;;;;;;14.90;99.90;;;;;;4216946;28;19952;-60
2022/09/02 06:20:44;;;;;;;;;;;15.00;99.90;;;;;;4216854;28;19924;-58
2022/09/02 06:22:47;;;;;;;;;;;15.10;99.90;;;;;;4217032;28;19963;-62
2022/09/02 06:24:51;;;;;;;;;;;15.10;99.90;;;;;;4217074;28;19928;-62
2022/09/02 06:26:54;;;;;;;;;;;15.20;99.90;;;;;;4216884;28;20303;-62
2022/09/02 06:28:57;;;;;;;;;;;15.40;99.90;;;;;;4217054;28;20425;-60
2022/09/02 06:31:12;;;;;;;;;;;15.50;99.90;;;;;;4216597;28;20020;-59
2022/09/02 06:33:15;;;;;;;;;;;15.60;99.90;;;;;;4216894;28;19928;-60
2022/09/02 06:35:17;;;;;;;;;;;15.70;99.90;;;;;;4217066;28;19935;-60
2022/09/02 06:37:20;;;;;;;;;;;15.80;99.90;;;;;;4216855;28;20136;-60
2022/09/02 06:39:24;;;;;;;;;;;16.00;99.90;;;;;;4218306;28;20319;-60
2022/09/02 06:41:32;;;;;;;;;;;16.10;99.90;;;;;;4199965;28;20353;-60
2022/09/02 06:43:35;;;;;;;;;;;16.10;99.90;;;;;;4207586;28;19935;-60
2022/09/02 06:45:44;;;;;;;;;;;16.40;99.90;;;;;;4216684;28;19924;-60
2022/09/02 06:47:46;;;;;;;;;;;16.40;99.90;;;;;;4214946;28;20022;-60
2022/09/02 06:49:51;;;;;;;;;;;16.60;99.90;;;;;;4216385;28;19969;-60
2022/09/02 06:51:55;;;;;;;;;;;16.60;99.90;;;;;;4216883;28;20391;-60
2022/09/02 06:53:59;;;;;;;;;;;16.70;99.90;;;;;;4216567;28;19939;-60
2022/09/02 06:56:05;;;;;;;;;;;16.70;99.90;;;;;;4216588;28;19928;-61
2022/09/02 06:58:08;;;;;;;;;;;16.90;99.90;;;;;;4216556;28;19928;-61
2022/09/02 07:00:13;;;;;;;;;;;16.80;99.90;;;;;;4216424;28;19932;-61
2022/09/02 07:02:16;;;;;;;;;;;16.90;99.90;;;;;;4216520;28;19931;-60
2022/09/02 07:06:47;;;;;;;;;;;17.20;99.90;;;;;;4216529;28;19931;-61
2022/09/02 07:08:53;;;;;;;;;;;17.30;99.90;;;;;;4216480;28;19973;-61
2022/09/02 07:10:56;;;;;;;;;;;17.50;99.90;;;;;;4216361;28;19928;-60
2022/09/02 07:12:58;;;;;;;;;;;17.60;99.90;;;;;;4216123;28;19954;-61
2022/09/02 07:15:01;;;;;;;;;;;17.80;99.90;;;;;;4214708;28;19938;-60
2022/09/02 07:17:04;;;;;;;;;;;18.10;99.90;;;;;;4216467;28;19928;-61
2022/09/02 07:19:07;;;;;;;;;;;18.10;99.90;;;;;;4186720;28;19925;-60
2022/09/02 07:21:19;;;;;;;;;;;17.90;99.90;;;;;;4202525;28;19940;-60
2022/09/02 07:23:21;;;;;;;;;;;18.10;99.90;;;;;;4216186;28;19958;-60
2022/09/02 07:25:24;;;;;;;;;;;18.20;99.90;;;;;;4215644;28;19928;-60
2022/09/02 07:27:26;;;;;;;;;;;18.20;99.90;;;;;;4216189;28;19928;-60
2022/09/02 07:29:29;;;;;;;;;;;18.30;99.90;;;;;;4214969;28;19924;-61
2022/09/02 07:31:39;;;;;;;;;;;18.50;99.90;;;;;;4215629;28;19924;-60
2022/09/02 07:33:41;;;;;;;;;;;18.70;99.90;;;;;;4215785;28;19979;-60
2022/09/02 07:35:45;;;;;;;;;;;19.00;99.90;;;;;;4204303;28;20343;-60
2022/09/02 07:37:49;;;;;;;;;;;19.10;99.90;;;;;;4224722;27;19971;-61
2022/09/02 07:39:52;;;;;;;;;;;19.20;99.90;;;;;;4215770;28;19924;-61
2022/09/02 07:41:58;;;;;;;;;;;19.20;99.90;;;;;;4215657;28;20295;-60
2022/09/02 07:44:03;;;;;;;;;;;19.30;99.90;;;;;;4215949;28;19975;-60
2022/09/02 07:46:13;;;;;;;;;;;19.40;99.90;;;;;;4215941;28;20399;-61
2022/09/02 07:48:15;;;;;;;;;;;19.50;99.90;;;;;;4215566;28;19924;-60
2022/09/02 07:50:19;;;;;;;;;;;19.50;99.90;;;;;;4215859;28;19928;-60
2022/09/02 07:52:22;;;;;;;;;;;19.60;99.90;;;;;;4215986;28;19932;-61
2022/09/02 07:54:25;;;;;;;;;;;19.60;99.90;;;;;;4215753;28;19975;-61
2022/09/02 07:56:31;;;;;;;;;;;19.90;99.90;;;;;;4215392;28;20391;-61
2022/09/02 07:58:36;;;;;;;;;;;20.00;99.90;;;;;;4215913;28;20023;-61
2022/09/02 08:00:41;;;;;;;;;;;20.10;99.90;;;;;;4215703;28;20466;-60
2022/09/02 08:02:47;;;;;;;;;;;20.00;99.90;;;;;;4215411;28;19924;-61
2022/09/02 08:04:50;;;;;;;;;;;20.10;99.90;;;;;;4215651;28;19964;-61
2022/09/02 08:06:56;;;;;;;;;;;20.50;99.90;;;;;;4204231;28;19952;-61
2022/09/02 08:08:59;;;;;;;;;;;20.60;99.90;;;;;;4200441;28;19933;-61
2022/09/02 08:11:02;;;;;;;;;;;20.60;99.90;;;;;;4215169;28;19938;-61
2022/09/02 08:13:05;;;;;;;;;;;20.60;99.90;;;;;;4215062;28;19928;-60
2022/09/02 08:15:15;;;;;;;;;;;20.50;99.90;;;;;;4215157;28;19924;-60
2022/09/02 08:17:18;;;;;;;;;;;20.50;99.90;;;;;;4215285;28;19925;-61
2022/09/02 08:19:26;;;;;;;;;;;20.50;99.90;;;;;;4215117;28;19931;-61
2022/09/02 08:21:29;;;;;;;;;;;20.60;99.90;;;;;;4215366;28;19928;-61
2022/09/02 08:23:31;;;;;;;;;;;20.60;99.90;;;;;;4215123;28;19935;-61
2022/09/02 08:25:40;;;;;;;;;;;20.70;99.90;;;;;;4215203;28;20303;-61
2022/09/02 08:27:43;;;;;;;;;;;20.70;99.90;;;;;;4215143;28;19928;-60
2022/09/02 08:29:46;;;;;;;;;;;20.70;99.90;;;;;;4215451;28;20035;-61
2022/09/02 08:31:49;;;;;;;;;;;20.90;99.90;;;;;;4215641;28;19924;-61
2022/09/02 08:33:55;;;;;;;;;;;20.90;99.90;;;;;;4237369;27;20340;-61
2022/09/02 08:36:07;;;;;;;;;;;21.20;99.90;;;;;;4215425;28;20391;-61
2022/09/02 08:38:11;;;;;;;;;;;21.40;99.90;;;;;;4204100;28;20484;-61
2022/09/02 08:40:18;;;;;;;;;;;21.60;99.90;;;;;;4214993;28;20395;-61
2022/09/02 08:42:48;;;;;;;;;;;22.00;99.90;;;;;;4214687;28;19924;-61
2022/09/02 08:44:57;;;;;;;;;;;22.10;99.90;;;;;;4214670;28;19924;-61
2022/09/02 08:47:05;;;;;;;;;;;21.90;99.90;;;;;;4214322;28;19925;-61
2022/09/02 08:49:15;;;;;;;;;;;21.90;99.90;;;;;;4214644;28;19946;-61
2022/09/02 08:51:45;;;;;;;;;;;22.10;99.90;;;;;;4214476;28;19928;-61
2022/09/02 08:54:01;;;;;;;;;;;22.20;99.90;;;;;;4214732;28;19977;-61
2022/09/02 08:56:07;;;;;;;;;;;22.30;99.90;;;;;;4214637;28;20318;-61
2022/09/02 08:58:12;;;;;;;;;;;22.30;99.90;;;;;;4214539;28;19928;-61
2022/09/02 09:00:16;;;;;;;;;;;22.30;99.90;;;;;;4214509;28;19924;-61
2022/09/02 09:02:20;;;;;;;;;;;22.50;99.90;;;;;;4214432;28;19974;-61
2022/09/02 09:04:32;;;;;;;;;;;22.70;99.90;;;;;;4214409;28;19932;-60
2022/09/02 09:06:44;;;;;;;;;;;22.80;99.90;;;;;;4214500;28;19947;-61
2022/09/02 09:08:50;;;;;;;;;;;22.70;99.90;;;;;;4209569;28;19928;-59
2022/09/02 09:10:59;;;;;;;;;;;22.80;99.90;;;;;;4206666;28;20419;-59
2022/09/02 09:13:04;;;;;;;;;;;23.40;99.90;;;;;;4206476;28;19997;-59
2022/09/02 09:15:11;;;;;;;;;;;23.40;99.90;;;;;;4214467;28;19931;-59
2022/09/02 09:17:21;;;;;;;;;;;23.60;99.90;;;;;;4212576;28;20502;-60
2022/09/02 09:19:53;;;;;;;;;;;24.00;99.90;;;;;;4206937;28;20418;-59
2022/09/02 09:21:59;;;;;;;;;;;23.80;99.90;;;;;;4196522;28;19927;-58
2022/09/02 09:24:06;;;;;;;;;;;24.10;99.90;;;;;;4202346;28;19935;-59
2022/09/02 09:26:11;;;;;;;;;;;24.00;99.90;;;;;;4208810;28;19982;-59
2022/09/02 09:28:15;;;;;;;;;;;24.10;99.90;;;;;;4208983;28;19928;-59
2022/09/02 09:30:17;;;;;;;;;;;24.00;99.90;;;;;;4210469;28;20387;-60
2022/09/02 09:32:34;;;;;;;;;;;24.30;99.90;;;;;;4213839;28;19931;-59
2022/09/02 09:34:52;;;;;;;;;;;24.50;99.90;;;;;;4214257;28;19928;-59
2022/09/02 09:36:54;;;;;;;;;;;23.90;99.90;;;;;;4213971;28;19930;-59
2022/09/02 09:38:57;;;;;;;;;;;24.00;99.90;;;;;;4197334;28;19928;-60
2022/09/02 09:41:20;;;;;;;;;;;24.50;99.90;;;;;;4208162;28;19924;-59
2022/09/02 09:43:28;;;;;;;;;;;24.80;99.90;;;;;;4206906;28;19932;-59
2022/09/02 09:45:33;;;;;;;;;;;25.10;99.90;;;;;;4214114;28;19931;-60
2022/09/02 09:47:36;;;;;;;;;;;25.00;99.90;;;;;;4208599;28;19928;-60
2022/09/02 09:49:39;;;;;;;;;;;25.00;99.90;;;;;;4203716;28;20319;-59
2022/09/02 09:51:53;;;;;;;;;;;25.10;99.90;;;;;;4196022;28;19931;-60
2022/09/02 09:54:21;;;;;;;;;;;24.90;99.90;;;;;;4206147;28;19924;-59
2022/09/02 09:56:27;;;;;;;;;;;25.00;99.90;;;;;;4212271;28;19979;-59
2022/09/02 09:58:32;;;;;;;;;;;25.10;99.90;;;;;;4207077;28;19924;-59
2022/09/02 10:00:35;;;;;;;;;;;25.20;99.90;;;;;;4209983;28;20022;-59
2022/09/02 10:02:44;;;;;;;;;;;25.30;99.90;;;;;;4213681;28;19982;-59
2022/09/02 10:04:48;;;;;;;;;;;25.60;99.90;;;;;;4210369;28;19925;-60
2022/09/02 10:07:01;;;;;;;;;;;26.10;99.90;;;;;;4211390;28;19928;-59
2022/09/02 10:09:13;;;;;;;;;;;26.20;99.40;;;;;;4210820;28;19928;-59
2022/09/02 10:11:45;;;;;;;;;;;26.20;99.00;;;;;;4211027;28;19924;-59
2022/09/02 10:13:48;;;;;;;;;;;25.90;99.90;;;;;;4194183;28;19936;-60
2022/09/02 10:15:55;;;;;;;;;;;26.10;99.80;;;;;;4204449;28;19950;-60
2022/09/02 10:18:05;;;;;;;;;;;26.30;99.90;;;;;;4211761;28;19924;-60
2022/09/02 10:20:14;;;;;;;;;;;26.80;99.80;;;;;;4213846;28;19924;-60
2022/09/02 10:22:31;;;;;;;;;;;27.10;99.90;;;;;;4212194;28;19939;-60
2022/09/02 10:24:57;;;;;;;;;;;27.00;99.90;;;;;;4215984;28;19967;-60
2022/09/02 10:27:26;;;;;;;;;;;27.20;98.90;;;;;;4209585;28;19928;-60
2022/09/02 10:29:47;;;;;;;;;;;27.20;98.90;;;;;;4209487;28;19924;-60
2022/09/02 10:31:54;;;;;;;;;;;27.10;98.10;;;;;;4213690;28;19928;-60
2022/09/02 10:34:07;;;;;;;;;;;26.60;97.10;;;;;;4212540;28;20413;-60
2022/09/02 10:36:35;;;;;;;;;;;26.30;97.70;;;;;;4198477;28;19986;-60
2022/09/02 10:38:47;;;;;;;;;;;26.60;99.20;;;;;;4206231;28;20029;-60
2022/09/02 10:40:59;;;;;;;;;;;26.30;96.60;;;;;;4217618;28;20387;-60
2022/09/02 10:43:06;;;;;;;;;;;26.40;98.90;;;;;;4213420;28;19924;-59
2022/09/02 10:45:09;;;;;;;;;;;26.10;96.90;;;;;;4213447;28;19935;-60
2022/09/02 10:47:25;;;;;;;;;;;25.90;98.50;;;;;;4212190;28;19924;-60
2022/09/02 10:49:55;;;;;;;;;;;26.20;97.10;;;;;;4211676;28;20260;-60
2022/09/02 10:52:08;;;;;;;;;;;26.80;96.50;;;;;;4213579;28;19924;-60
2022/09/02 10:54:33;;;;;;;;;;;27.00;93.60;;;;;;4212848;28;20329;-59
2022/09/02 10:56:42;;;;;;;;;;;26.80;95.00;;;;;;4213732;27;19928;-59
2022/09/02 10:58:55;;;;;;;;;;;26.90;95.50;;;;;;4195588;28;19999;-59
2022/09/02 11:00:58;;;;;;;;;;;27.00;95.50;;;;;;4208923;28;19924;-59
2022/09/02 11:03:00;;;;;;;;;;;27.30;93.30;;;;;;4216326;28;19924;-60
2022/09/02 11:05:21;;;;;;;;;;;27.40;93.00;;;;;;4200202;28;19948;-59
2022/09/02 11:07:29;;;;;;;;;;;27.30;93.10;;;;;;4209197;28;20057;-59
2022/09/02 11:09:53;;;;;;;;;;;27.40;94.40;;;;;;4215374;28;20292;-60
2022/09/02 11:11:59;;;;;;;;;;;27.50;95.70;;;;;;4214794;28;20388;-59
2022/09/02 11:14:15;;;;;;;;;;;27.80;93.50;;;;;;4202722;28;19925;-60
2022/09/02 11:16:28;;;;;;;;;;;28.20;93.30;;;;;;4203667;28;19955;-60
2022/09/02 11:18:36;;;;;;;;;;;28.00;93.00;;;;;;4216436;28;19938;-60
2022/09/02 11:20:47;;;;;;;;;;;28.60;94.00;;;;;;4217756;28;19924;-60
2022/09/02 11:23:18;;;;;;;;;;;28.70;93.10;;;;;;4231874;27;19928;-60
2022/09/02 11:25:29;;;;;;;;;;;28.60;91.90;;;;;;4215335;28;19927;-60
2022/09/02 11:27:45;;;;;;;;;;;28.70;91.40;;;;;;4197966;28;19948;-60
2022/09/02 11:30:07;;;;;;;;;;;29.00;93.90;;;;;;4209087;28;19932;-60
2022/09/02 11:32:18;;;;;;;;;;;29.20;91.20;;;;;;4215109;28;20027;-60
2022/09/02 11:34:34;;;;;;;;;;;29.30;89.10;;;;;;4214712;28;19924;-59
2022/09/02 11:36:37;;;;;;;;;;;29.10;90.40;;;;;;4213232;28;19927;-60
2022/09/02 11:38:51;;;;;;;;;;;28.70;90.50;;;;;;4215641;28;19969;-59
2022/09/02 11:40:59;;;;;;;;;;;28.40;91.00;;;;;;4197858;28;19924;-60
2022/09/02 11:43:34;;;;;;;;;;;28.60;91.10;;;;;;4198967;28;19978;-60
2022/09/02 11:45:42;;;;;;;;;;;28.50;90.00;;;;;;4208287;28;19928;-60
2022/09/02 11:48:00;;;;;;;;;;;28.20;91.20;;;;;;4215121;28;20371;-60
2022/09/02 11:50:16;;;;;;;;;;;28.70;93.10;;;;;;4213355;28;19928;-60
2022/09/02 11:52:22;;;;;;;;;;;29.20;91.20;;;;;;4214001;28;19928;-60
2022/09/02 11:54:28;;;;;;;;;;;29.00;90.90;;;;;;4214367;28;19924;-60
2022/09/02 11:56:37;;;;;;;;;;;29.00;91.60;;;;;;4212950;28;20017;-60
2022/09/02 11:58:55;;;;;;;;;;;29.40;92.90;;;;;;4212790;28;19924;-60
2022/09/02 12:01:00;;;;;;;;;;;29.80;91.50;;;;;;4215983;28;19963;-60
2022/09/02 12:03:04;;;;;;;;;;;29.60;91.70;;;;;;4214182;28;19942;-60
2022/09/02 12:05:33;;;;;;;;;;;29.70;91.30;;;;;;4201501;28;19928;-60
2022/09/02 12:07:47;;;;;;;;;;;29.50;91.60;;;;;;4205266;28;19928;-60
2022/09/02 12:09:51;;;;;;;;;;;29.80;93.00;;;;;;4215177;28;19947;-60
2022/09/02 12:11:53;;;;;;;;;;;29.90;91.00;;;;;;4212860;28;20281;-60
2022/09/02 12:13:57;;;;;;;;;;;29.30;91.10;;;;;;4212309;28;20414;-60
2022/09/02 12:16:21;;;;;;;;;;;29.60;89.40;;;;;;4215039;28;20369;-60
2022/09/02 12:18:29;;;;;;;;;;;29.50;91.50;;;;;;4226854;28;20638;-60
2022/09/02 12:20:55;;;;;;;;;;;29.70;92.30;;;;;;4217808;28;19935;-61
2022/09/02 12:23:34;;;;;;;;;;;29.90;91.70;;;;;;4210997;28;19924;-60